sensor_id;sensor_type;location;lat;lon;timestamp;P1;durP1;ratioP1;P2;durP2;ratioP2
45522;SDS011;31254;51.680;5.394;2023-10-31T00:00:28;2.10;;;1.50;;
45522;SDS011;31254;51.680;5.394;2023-10-31T00:02:54;3.83;;;1.60;;
45522;SDS011;31254;51.680;5.394;2023-10-31T00:05:21;2.38;;;1.33;;
45522;SDS011;31254;51.680;5.394;2023-10-31T00:07:47;2.45;;;1.40;;
45522;SDS011;31254;51.680;5.394;2023-10-31T00:10:14;3.45;;;1.63;;
45522;SDS011;31254;51.680;5.394;2023-10-31T00:12:41;3.03;;;1.63;;
45522;SDS011;31254;51.680;5.394;2023-10-31T00:15:07;2.95;;;1.75;;
45522;SDS011;31254;51.680;5.394;2023-10-31T00:17:34;3.05;;;1.70;;
45522;SDS011;31254;51.680;5.394;2023-10-31T00:20:01;4.22;;;1.77;;
45522;SDS011;31254;51.680;5.394;2023-10-31T00:22:27;3.17;;;1.70;;
45522;SDS011;31254;51.680;5.394;2023-10-31T00:24:54;2.92;;;1.60;;
45522;SDS011;31254;51.680;5.394;2023-10-31T00:27:20;2.35;;;1.60;;
45522;SDS011;31254;51.680;5.394;2023-10-31T00:29:47;3.53;;;1.77;;
45522;SDS011;31254;51.680;5.394;2023-10-31T00:32:13;4.03;;;2.08;;
45522;SDS011;31254;51.680;5.394;2023-10-31T00:34:40;5.65;;;2.20;;
45522;SDS011;31254;51.680;5.394;2023-10-31T00:37:07;2.90;;;1.80;;
45522;SDS011;31254;51.680;5.394;2023-10-31T00:39:33;5.50;;;2.10;;
45522;SDS011;31254;51.680;5.394;2023-10-31T00:42:00;3.97;;;2.22;;
45522;SDS011;31254;51.680;5.394;2023-10-31T00:44:26;5.88;;;2.33;;
45522;SDS011;31254;51.680;5.394;2023-10-31T00:46:53;4.28;;;2.45;;
45522;SDS011;31254;51.680;5.394;2023-10-31T00:49:19;3.67;;;2.35;;
45522;SDS011;31254;51.680;5.394;2023-10-31T00:51:46;2.75;;;1.85;;
45522;SDS011;31254;51.680;5.394;2023-10-31T00:54:12;4.65;;;2.10;;
45522;SDS011;31254;51.680;5.394;2023-10-31T00:56:39;3.15;;;2.00;;
45522;SDS011;31254;51.680;5.394;2023-10-31T00:59:06;3.80;;;1.92;;
45522;SDS011;31254;51.680;5.394;2023-10-31T01:01:32;3.85;;;2.00;;
45522;SDS011;31254;51.680;5.394;2023-10-31T01:03:59;5.50;;;2.38;;
45522;SDS011;31254;51.680;5.394;2023-10-31T01:06:26;3.33;;;2.08;;
45522;SDS011;31254;51.680;5.394;2023-10-31T01:08:53;2.85;;;1.80;;
45522;SDS011;31254;51.680;5.394;2023-10-31T01:11:19;3.78;;;2.00;;
45522;SDS011;31254;51.680;5.394;2023-10-31T01:13:46;3.35;;;1.90;;
45522;SDS011;31254;51.680;5.394;2023-10-31T01:16:13;4.30;;;2.13;;
45522;SDS011;31254;51.680;5.394;2023-10-31T01:18:39;5.47;;;2.00;;
45522;SDS011;31254;51.680;5.394;2023-10-31T01:21:06;4.85;;;2.08;;
45522;SDS011;31254;51.680;5.394;2023-10-31T01:23:33;4.80;;;2.30;;
45522;SDS011;31254;51.680;5.394;2023-10-31T01:25:59;5.25;;;1.90;;
45522;SDS011;31254;51.680;5.394;2023-10-31T01:28:26;6.10;;;2.10;;
45522;SDS011;31254;51.680;5.394;2023-10-31T01:30:53;3.53;;;1.73;;
45522;SDS011;31254;51.680;5.394;2023-10-31T01:33:19;3.50;;;1.80;;
45522;SDS011;31254;51.680;5.394;2023-10-31T01:35:47;5.68;;;2.17;;
45522;SDS011;31254;51.680;5.394;2023-10-31T01:38:14;6.10;;;1.88;;
45522;SDS011;31254;51.680;5.394;2023-10-31T01:40:40;3.55;;;1.67;;
45522;SDS011;31254;51.680;5.394;2023-10-31T01:43:07;2.55;;;1.65;;
45522;SDS011;31254;51.680;5.394;2023-10-31T01:45:33;2.58;;;1.88;;
45522;SDS011;31254;51.680;5.394;2023-10-31T01:48:00;3.67;;;1.85;;
45522;SDS011;31254;51.680;5.394;2023-10-31T01:50:27;3.03;;;1.90;;
45522;SDS011;31254;51.680;5.394;2023-10-31T01:52:54;4.53;;;1.83;;
45522;SDS011;31254;51.680;5.394;2023-10-31T01:55:21;6.05;;;2.30;;
45522;SDS011;31254;51.680;5.394;2023-10-31T01:57:48;3.72;;;2.05;;
45522;SDS011;31254;51.680;5.394;2023-10-31T02:00:15;3.63;;;2.00;;
45522;SDS011;31254;51.680;5.394;2023-10-31T02:02:42;4.63;;;2.38;;
45522;SDS011;31254;51.680;5.394;2023-10-31T02:05:09;4.97;;;2.97;;
45522;SDS011;31254;51.680;5.394;2023-10-31T02:07:36;4.32;;;2.65;;
45522;SDS011;31254;51.680;5.394;2023-10-31T02:10:03;6.30;;;3.20;;
45522;SDS011;31254;51.680;5.394;2023-10-31T02:12:31;6.68;;;3.15;;
45522;SDS011;31254;51.680;5.394;2023-10-31T02:15:01;6.70;;;4.10;;
45522;SDS011;31254;51.680;5.394;2023-10-31T02:17:28;6.22;;;4.53;;
45522;SDS011;31254;51.680;5.394;2023-10-31T02:19:55;8.27;;;4.70;;
45522;SDS011;31254;51.680;5.394;2023-10-31T02:22:22;7.68;;;5.20;;
45522;SDS011;31254;51.680;5.394;2023-10-31T02:24:49;9.23;;;5.68;;
45522;SDS011;31254;51.680;5.394;2023-10-31T02:27:15;9.20;;;6.70;;
45522;SDS011;31254;51.680;5.394;2023-10-31T02:29:42;10.95;;;6.50;;
45522;SDS011;31254;51.680;5.394;2023-10-31T02:32:09;9.68;;;6.50;;
45522;SDS011;31254;51.680;5.394;2023-10-31T02:34:36;10.55;;;7.15;;
45522;SDS011;31254;51.680;5.394;2023-10-31T02:37:02;11.48;;;7.45;;
45522;SDS011;31254;51.680;5.394;2023-10-31T02:39:29;9.90;;;7.35;;
45522;SDS011;31254;51.680;5.394;2023-10-31T02:41:55;12.13;;;8.13;;
45522;SDS011;31254;51.680;5.394;2023-10-31T02:44:22;13.10;;;8.95;;
45522;SDS011;31254;51.680;5.394;2023-10-31T02:46:48;12.88;;;9.10;;
45522;SDS011;31254;51.680;5.394;2023-10-31T02:49:15;13.10;;;9.50;;
45522;SDS011;31254;51.680;5.394;2023-10-31T02:51:42;14.57;;;10.02;;
45522;SDS011;31254;51.680;5.394;2023-10-31T02:54:08;14.70;;;10.48;;
45522;SDS011;31254;51.680;5.394;2023-10-31T02:56:35;14.73;;;10.98;;
45522;SDS011;31254;51.680;5.394;2023-10-31T02:59:01;14.25;;;10.50;;
45522;SDS011;31254;51.680;5.394;2023-10-31T03:01:28;20.83;;;11.63;;
45522;SDS011;31254;51.680;5.394;2023-10-31T03:03:55;18.02;;;11.43;;
45522;SDS011;31254;51.680;5.394;2023-10-31T03:06:23;17.05;;;11.90;;
45522;SDS011;31254;51.680;5.394;2023-10-31T03:08:49;15.70;;;11.82;;
45522;SDS011;31254;51.680;5.394;2023-10-31T03:11:22;16.67;;;11.63;;
45522;SDS011;31254;51.680;5.394;2023-10-31T03:13:53;14.38;;;11.38;;
45522;SDS011;31254;51.680;5.394;2023-10-31T03:16:20;17.17;;;12.45;;
45522;SDS011;31254;51.680;5.394;2023-10-31T03:18:47;15.25;;;11.93;;
45522;SDS011;31254;51.680;5.394;2023-10-31T03:21:14;16.75;;;12.43;;
45522;SDS011;31254;51.680;5.394;2023-10-31T03:23:45;16.90;;;12.30;;
45522;SDS011;31254;51.680;5.394;2023-10-31T03:26:18;19.17;;;13.07;;
45522;SDS011;31254;51.680;5.394;2023-10-31T03:28:45;15.43;;;11.90;;
45522;SDS011;31254;51.680;5.394;2023-10-31T03:31:12;16.92;;;12.23;;
45522;SDS011;31254;51.680;5.394;2023-10-31T03:33:40;16.20;;;12.52;;
45522;SDS011;31254;51.680;5.394;2023-10-31T03:36:08;16.55;;;12.18;;
45522;SDS011;31254;51.680;5.394;2023-10-31T03:38:35;16.67;;;11.80;;
45522;SDS011;31254;51.680;5.394;2023-10-31T03:41:02;18.10;;;12.48;;
45522;SDS011;31254;51.680;5.394;2023-10-31T03:43:29;14.18;;;11.45;;
45522;SDS011;31254;51.680;5.394;2023-10-31T03:45:55;18.92;;;13.52;;
45522;SDS011;31254;51.680;5.394;2023-10-31T03:48:22;17.33;;;12.05;;
45522;SDS011;31254;51.680;5.394;2023-10-31T03:50:49;17.40;;;12.00;;
45522;SDS011;31254;51.680;5.394;2023-10-31T03:53:16;16.63;;;11.60;;
45522;SDS011;31254;51.680;5.394;2023-10-31T03:55:43;16.73;;;11.90;;
45522;SDS011;31254;51.680;5.394;2023-10-31T03:58:09;16.33;;;11.55;;
45522;SDS011;31254;51.680;5.394;2023-10-31T04:00:36;15.70;;;11.20;;
45522;SDS011;31254;51.680;5.394;2023-10-31T04:03:05;13.63;;;10.25;;
45522;SDS011;31254;51.680;5.394;2023-10-31T04:05:31;13.98;;;10.95;;
45522;SDS011;31254;51.680;5.394;2023-10-31T04:07:58;15.70;;;11.30;;
45522;SDS011;31254;51.680;5.394;2023-10-31T04:10:25;15.25;;;11.20;;
45522;SDS011;31254;51.680;5.394;2023-10-31T04:12:52;14.13;;;10.80;;
45522;SDS011;31254;51.680;5.394;2023-10-31T04:15:18;14.02;;;10.90;;
45522;SDS011;31254;51.680;5.394;2023-10-31T04:17:45;13.75;;;10.48;;
45522;SDS011;31254;51.680;5.394;2023-10-31T04:20:12;14.35;;;10.82;;
45522;SDS011;31254;51.680;5.394;2023-10-31T04:22:38;14.45;;;11.18;;
45522;SDS011;31254;51.680;5.394;2023-10-31T04:25:05;15.43;;;11.25;;
45522;SDS011;31254;51.680;5.394;2023-10-31T04:27:32;14.13;;;10.50;;
45522;SDS011;31254;51.680;5.394;2023-10-31T04:29:58;18.50;;;11.00;;
45522;SDS011;31254;51.680;5.394;2023-10-31T04:32:25;15.57;;;11.15;;
45522;SDS011;31254;51.680;5.394;2023-10-31T04:34:52;13.63;;;10.43;;
45522;SDS011;31254;51.680;5.394;2023-10-31T04:37:18;14.93;;;10.93;;
45522;SDS011;31254;51.680;5.394;2023-10-31T04:39:45;15.73;;;10.98;;
45522;SDS011;31254;51.680;5.394;2023-10-31T04:42:11;14.43;;;10.57;;
45522;SDS011;31254;51.680;5.394;2023-10-31T04:44:38;14.18;;;10.65;;
45522;SDS011;31254;51.680;5.394;2023-10-31T04:47:05;15.50;;;11.73;;
45522;SDS011;31254;51.680;5.394;2023-10-31T04:49:34;13.13;;;10.77;;
45522;SDS011;31254;51.680;5.394;2023-10-31T04:52:01;14.65;;;10.82;;
45522;SDS011;31254;51.680;5.394;2023-10-31T04:54:28;14.52;;;10.80;;
45522;SDS011;31254;51.680;5.394;2023-10-31T04:56:54;14.90;;;11.10;;
45522;SDS011;31254;51.680;5.394;2023-10-31T04:59:21;15.07;;;10.43;;
45522;SDS011;31254;51.680;5.394;2023-10-31T05:01:48;13.00;;;10.13;;
45522;SDS011;31254;51.680;5.394;2023-10-31T05:04:18;16.08;;;11.20;;
45522;SDS011;31254;51.680;5.394;2023-10-31T05:06:45;14.57;;;11.02;;
45522;SDS011;31254;51.680;5.394;2023-10-31T05:09:12;14.93;;;10.65;;
45522;SDS011;31254;51.680;5.394;2023-10-31T05:11:41;15.27;;;11.10;;
45522;SDS011;31254;51.680;5.394;2023-10-31T05:14:08;13.75;;;10.75;;
45522;SDS011;31254;51.680;5.394;2023-10-31T05:16:40;14.10;;;10.38;;
45522;SDS011;31254;51.680;5.394;2023-10-31T05:19:08;15.40;;;12.02;;
45522;SDS011;31254;51.680;5.394;2023-10-31T05:21:35;15.50;;;11.07;;
45522;SDS011;31254;51.680;5.394;2023-10-31T05:24:01;14.05;;;10.82;;
45522;SDS011;31254;51.680;5.394;2023-10-31T05:26:28;15.95;;;11.18;;
45522;SDS011;31254;51.680;5.394;2023-10-31T05:28:56;13.80;;;11.48;;
45522;SDS011;31254;51.680;5.394;2023-10-31T05:31:24;14.90;;;11.43;;
45522;SDS011;31254;51.680;5.394;2023-10-31T05:33:51;14.10;;;10.75;;
45522;SDS011;31254;51.680;5.394;2023-10-31T05:36:19;14.65;;;10.77;;
45522;SDS011;31254;51.680;5.394;2023-10-31T05:38:49;15.13;;;10.70;;
45522;SDS011;31254;51.680;5.394;2023-10-31T05:41:16;14.55;;;10.68;;
45522;SDS011;31254;51.680;5.394;2023-10-31T05:43:43;14.10;;;10.48;;
45522;SDS011;31254;51.680;5.394;2023-10-31T05:46:09;13.68;;;10.57;;
45522;SDS011;31254;51.680;5.394;2023-10-31T05:48:37;13.80;;;10.48;;
45522;SDS011;31254;51.680;5.394;2023-10-31T05:51:17;12.90;;;10.38;;
45522;SDS011;31254;51.680;5.394;2023-10-31T05:53:46;16.02;;;10.88;;
45522;SDS011;31254;51.680;5.394;2023-10-31T05:56:14;14.25;;;11.13;;
45522;SDS011;31254;51.680;5.394;2023-10-31T05:58:41;13.90;;;10.73;;
45522;SDS011;31254;51.680;5.394;2023-10-31T06:01:09;15.10;;;10.95;;
45522;SDS011;31254;51.680;5.394;2023-10-31T06:03:36;13.63;;;10.60;;
45522;SDS011;31254;51.680;5.394;2023-10-31T06:06:03;15.30;;;10.88;;
45522;SDS011;31254;51.680;5.394;2023-10-31T06:08:30;15.13;;;11.35;;
45522;SDS011;31254;51.680;5.394;2023-10-31T06:10:57;14.80;;;11.50;;
45522;SDS011;31254;51.680;5.394;2023-10-31T06:13:24;13.82;;;10.77;;
45522;SDS011;31254;51.680;5.394;2023-10-31T06:15:55;14.80;;;11.55;;
45522;SDS011;31254;51.680;5.394;2023-10-31T06:18:27;16.50;;;10.45;;
45522;SDS011;31254;51.680;5.394;2023-10-31T06:20:54;15.07;;;11.50;;
45522;SDS011;31254;51.680;5.394;2023-10-31T06:23:20;14.77;;;11.65;;
45522;SDS011;31254;51.680;5.394;2023-10-31T06:25:47;16.73;;;11.52;;
45522;SDS011;31254;51.680;5.394;2023-10-31T06:28:14;14.90;;;11.20;;
45522;SDS011;31254;51.680;5.394;2023-10-31T06:30:41;16.35;;;11.65;;
45522;SDS011;31254;51.680;5.394;2023-10-31T06:33:07;15.90;;;12.25;;
45522;SDS011;31254;51.680;5.394;2023-10-31T06:35:35;16.40;;;11.98;;
45522;SDS011;31254;51.680;5.394;2023-10-31T06:38:02;16.13;;;11.93;;
45522;SDS011;31254;51.680;5.394;2023-10-31T06:40:28;15.75;;;11.73;;
45522;SDS011;31254;51.680;5.394;2023-10-31T06:42:55;16.50;;;12.05;;
45522;SDS011;31254;51.680;5.394;2023-10-31T06:45:21;17.52;;;12.38;;
45522;SDS011;31254;51.680;5.394;2023-10-31T06:47:48;15.13;;;12.25;;
45522;SDS011;31254;51.680;5.394;2023-10-31T06:50:15;16.13;;;12.05;;
45522;SDS011;31254;51.680;5.394;2023-10-31T06:52:45;15.75;;;11.77;;
45522;SDS011;31254;51.680;5.394;2023-10-31T06:55:12;15.23;;;11.73;;
45522;SDS011;31254;51.680;5.394;2023-10-31T06:57:39;14.13;;;11.07;;
45522;SDS011;31254;51.680;5.394;2023-10-31T07:00:06;14.45;;;11.35;;
45522;SDS011;31254;51.680;5.394;2023-10-31T07:02:35;14.75;;;11.80;;
45522;SDS011;31254;51.680;5.394;2023-10-31T07:05:02;13.13;;;10.55;;
45522;SDS011;31254;51.680;5.394;2023-10-31T07:07:32;13.85;;;11.20;;
45522;SDS011;31254;51.680;5.394;2023-10-31T07:09:59;14.45;;;11.65;;
45522;SDS011;31254;51.680;5.394;2023-10-31T07:12:25;12.90;;;11.00;;
45522;SDS011;31254;51.680;5.394;2023-10-31T07:14:52;13.45;;;10.70;;
45522;SDS011;31254;51.680;5.394;2023-10-31T07:17:19;14.80;;;11.70;;
45522;SDS011;31254;51.680;5.394;2023-10-31T07:19:45;17.13;;;10.68;;
45522;SDS011;31254;51.680;5.394;2023-10-31T07:22:12;15.50;;;10.57;;
45522;SDS011;31254;51.680;5.394;2023-10-31T07:24:38;12.95;;;10.90;;
45522;SDS011;31254;51.680;5.394;2023-10-31T07:27:05;11.88;;;10.45;;
45522;SDS011;31254;51.680;5.394;2023-10-31T07:29:32;13.68;;;10.57;;
45522;SDS011;31254;51.680;5.394;2023-10-31T07:31:58;11.65;;;9.73;;
45522;SDS011;31254;51.680;5.394;2023-10-31T07:34:25;11.77;;;9.63;;
45522;SDS011;31254;51.680;5.394;2023-10-31T07:36:52;13.00;;;10.00;;
45522;SDS011;31254;51.680;5.394;2023-10-31T07:39:18;16.08;;;10.75;;
45522;SDS011;31254;51.680;5.394;2023-10-31T07:41:45;12.48;;;9.65;;
45522;SDS011;31254;51.680;5.394;2023-10-31T07:44:11;12.10;;;9.80;;
45522;SDS011;31254;51.680;5.394;2023-10-31T07:46:38;13.25;;;9.88;;
45522;SDS011;31254;51.680;5.394;2023-10-31T07:49:05;11.82;;;9.43;;
45522;SDS011;31254;51.680;5.394;2023-10-31T07:51:32;12.02;;;9.27;;
45522;SDS011;31254;51.680;5.394;2023-10-31T07:53:58;10.70;;;8.93;;
45522;SDS011;31254;51.680;5.394;2023-10-31T07:56:25;12.82;;;9.52;;
45522;SDS011;31254;51.680;5.394;2023-10-31T07:58:52;11.90;;;9.65;;
45522;SDS011;31254;51.680;5.394;2023-10-31T08:01:19;11.15;;;9.02;;
45522;SDS011;31254;51.680;5.394;2023-10-31T08:03:46;12.13;;;9.02;;
45522;SDS011;31254;51.680;5.394;2023-10-31T08:06:14;10.52;;;8.80;;
45522;SDS011;31254;51.680;5.394;2023-10-31T08:08:40;12.38;;;9.25;;
45522;SDS011;31254;51.680;5.394;2023-10-31T08:11:07;11.80;;;9.20;;
45522;SDS011;31254;51.680;5.394;2023-10-31T08:13:36;11.40;;;9.43;;
45522;SDS011;31254;51.680;5.394;2023-10-31T08:16:04;12.45;;;9.02;;
45522;SDS011;31254;51.680;5.394;2023-10-31T08:18:32;11.85;;;9.18;;
45522;SDS011;31254;51.680;5.394;2023-10-31T08:20:59;11.13;;;8.90;;
45522;SDS011;31254;51.680;5.394;2023-10-31T08:23:25;9.48;;;8.20;;
45522;SDS011;31254;51.680;5.394;2023-10-31T08:25:52;12.25;;;9.43;;
45522;SDS011;31254;51.680;5.394;2023-10-31T08:28:18;10.90;;;9.18;;
45522;SDS011;31254;51.680;5.394;2023-10-31T08:30:45;10.15;;;8.15;;
45522;SDS011;31254;51.680;5.394;2023-10-31T08:33:13;11.38;;;8.73;;
45522;SDS011;31254;51.680;5.394;2023-10-31T08:35:40;10.13;;;8.52;;
45522;SDS011;31254;51.680;5.394;2023-10-31T08:38:08;10.32;;;8.57;;
45522;SDS011;31254;51.680;5.394;2023-10-31T08:40:46;13.35;;;9.20;;
45522;SDS011;31254;51.680;5.394;2023-10-31T08:43:13;9.88;;;8.40;;
45522;SDS011;31254;51.680;5.394;2023-10-31T08:45:40;10.02;;;8.63;;
45522;SDS011;31254;51.680;5.394;2023-10-31T08:48:06;12.88;;;9.15;;
45522;SDS011;31254;51.680;5.394;2023-10-31T08:50:33;10.13;;;8.73;;
45522;SDS011;31254;51.680;5.394;2023-10-31T08:53:00;10.98;;;9.02;;
45522;SDS011;31254;51.680;5.394;2023-10-31T08:55:28;11.35;;;9.07;;
45522;SDS011;31254;51.680;5.394;2023-10-31T08:57:54;12.02;;;9.70;;
45522;SDS011;31254;51.680;5.394;2023-10-31T09:00:21;13.77;;;9.35;;
45522;SDS011;31254;51.680;5.394;2023-10-31T09:02:48;11.48;;;9.70;;
45522;SDS011;31254;51.680;5.394;2023-10-31T09:05:15;11.18;;;8.82;;
45522;SDS011;31254;51.680;5.394;2023-10-31T09:07:42;12.55;;;9.48;;
45522;SDS011;31254;51.680;5.394;2023-10-31T09:10:08;13.48;;;10.65;;
45522;SDS011;31254;51.680;5.394;2023-10-31T09:12:35;13.75;;;11.43;;
45522;SDS011;31254;51.680;5.394;2023-10-31T09:15:01;12.98;;;10.50;;
45522;SDS011;31254;51.680;5.394;2023-10-31T09:17:28;14.55;;;10.80;;
45522;SDS011;31254;51.680;5.394;2023-10-31T09:19:55;15.00;;;10.82;;
45522;SDS011;31254;51.680;5.394;2023-10-31T09:22:22;13.80;;;10.85;;
45522;SDS011;31254;51.680;5.394;2023-10-31T09:24:48;13.15;;;10.65;;
45522;SDS011;31254;51.680;5.394;2023-10-31T09:27:15;13.35;;;10.98;;
45522;SDS011;31254;51.680;5.394;2023-10-31T09:29:41;14.88;;;11.43;;
45522;SDS011;31254;51.680;5.394;2023-10-31T09:32:08;17.02;;;11.43;;
45522;SDS011;31254;51.680;5.394;2023-10-31T09:34:35;14.63;;;10.65;;
45522;SDS011;31254;51.680;5.394;2023-10-31T09:37:01;13.77;;;11.38;;
45522;SDS011;31254;51.680;5.394;2023-10-31T09:39:28;15.05;;;12.15;;
45522;SDS011;31254;51.680;5.394;2023-10-31T09:41:55;14.75;;;11.77;;
45522;SDS011;31254;51.680;5.394;2023-10-31T09:44:22;17.00;;;12.23;;
45522;SDS011;31254;51.680;5.394;2023-10-31T09:46:49;16.15;;;12.57;;
45522;SDS011;31254;51.680;5.394;2023-10-31T09:49:18;16.50;;;12.32;;
45522;SDS011;31254;51.680;5.394;2023-10-31T09:51:45;16.83;;;12.57;;
45522;SDS011;31254;51.680;5.394;2023-10-31T09:54:13;16.40;;;12.20;;
45522;SDS011;31254;51.680;5.394;2023-10-31T09:56:43;16.05;;;12.73;;
45522;SDS011;31254;51.680;5.394;2023-10-31T09:59:09;17.42;;;12.75;;
45522;SDS011;31254;51.680;5.394;2023-10-31T10:01:36;16.23;;;13.10;;
45522;SDS011;31254;51.680;5.394;2023-10-31T10:04:04;16.38;;;13.00;;
45522;SDS011;31254;51.680;5.394;2023-10-31T10:06:32;16.60;;;13.15;;
45522;SDS011;31254;51.680;5.394;2023-10-31T10:08:58;19.30;;;12.85;;
45522;SDS011;31254;51.680;5.394;2023-10-31T10:11:25;17.23;;;12.80;;
45522;SDS011;31254;51.680;5.394;2023-10-31T10:13:52;17.05;;;12.80;;
45522;SDS011;31254;51.680;5.394;2023-10-31T10:19:21;16.30;;;12.82;;
45522;SDS011;31254;51.680;5.394;2023-10-31T10:21:51;19.88;;;13.18;;
45522;SDS011;31254;51.680;5.394;2023-10-31T10:24:21;18.48;;;14.13;;
45522;SDS011;31254;51.680;5.394;2023-10-31T10:26:49;17.05;;;13.23;;
45522;SDS011;31254;51.680;5.394;2023-10-31T10:29:16;21.65;;;14.35;;
45522;SDS011;31254;51.680;5.394;2023-10-31T10:31:44;18.10;;;13.48;;
45522;SDS011;31254;51.680;5.394;2023-10-31T10:34:14;18.45;;;14.38;;
45522;SDS011;31254;51.680;5.394;2023-10-31T10:36:44;19.45;;;13.95;;
45522;SDS011;31254;51.680;5.394;2023-10-31T10:39:19;17.92;;;13.48;;
45522;SDS011;31254;51.680;5.394;2023-10-31T10:41:53;20.65;;;14.18;;
45522;SDS011;31254;51.680;5.394;2023-10-31T10:44:32;19.38;;;14.50;;
45522;SDS011;31254;51.680;5.394;2023-10-31T10:47:04;19.38;;;14.20;;
45522;SDS011;31254;51.680;5.394;2023-10-31T10:49:34;19.17;;;13.55;;
45522;SDS011;31254;51.680;5.394;2023-10-31T10:54:45;20.15;;;14.45;;
45522;SDS011;31254;51.680;5.394;2023-10-31T10:57:24;19.00;;;13.98;;
45522;SDS011;31254;51.680;5.394;2023-10-31T11:00:15;19.05;;;14.43;;
45522;SDS011;31254;51.680;5.394;2023-10-31T11:02:43;19.33;;;14.13;;
45522;SDS011;31254;51.680;5.394;2023-10-31T11:05:10;19.50;;;14.27;;
45522;SDS011;31254;51.680;5.394;2023-10-31T11:07:39;19.48;;;13.05;;
45522;SDS011;31254;51.680;5.394;2023-10-31T11:10:07;20.25;;;14.30;;
45522;SDS011;31254;51.680;5.394;2023-10-31T11:12:35;17.92;;;13.57;;
45522;SDS011;31254;51.680;5.394;2023-10-31T11:15:04;17.00;;;12.82;;
45522;SDS011;31254;51.680;5.394;2023-10-31T11:17:37;20.52;;;13.93;;
45522;SDS011;31254;51.680;5.394;2023-10-31T11:20:06;17.27;;;12.57;;
45522;SDS011;31254;51.680;5.394;2023-10-31T11:22:39;20.55;;;13.88;;
45522;SDS011;31254;51.680;5.394;2023-10-31T11:25:13;18.67;;;13.65;;
45522;SDS011;31254;51.680;5.394;2023-10-31T11:27:54;18.98;;;13.13;;
45522;SDS011;31254;51.680;5.394;2023-10-31T11:30:36;20.63;;;14.00;;
45522;SDS011;31254;51.680;5.394;2023-10-31T11:33:03;19.50;;;13.85;;
45522;SDS011;31254;51.680;5.394;2023-10-31T11:35:36;19.27;;;13.95;;
45522;SDS011;31254;51.680;5.394;2023-10-31T11:38:09;17.77;;;12.88;;
45522;SDS011;31254;51.680;5.394;2023-10-31T11:40:46;17.38;;;13.30;;
45522;SDS011;31254;51.680;5.394;2023-10-31T11:43:31;19.25;;;13.30;;
45522;SDS011;31254;51.680;5.394;2023-10-31T11:46:02;22.13;;;14.02;;
45522;SDS011;31254;51.680;5.394;2023-10-31T11:48:48;19.33;;;13.95;;
45522;SDS011;31254;51.680;5.394;2023-10-31T11:51:17;19.15;;;13.48;;
45522;SDS011;31254;51.680;5.394;2023-10-31T11:53:44;17.65;;;13.88;;
45522;SDS011;31254;51.680;5.394;2023-10-31T11:56:11;19.85;;;13.55;;
45522;SDS011;31254;51.680;5.394;2023-10-31T11:58:38;19.73;;;13.18;;
45522;SDS011;31254;51.680;5.394;2023-10-31T12:01:05;17.80;;;13.48;;
45522;SDS011;31254;51.680;5.394;2023-10-31T12:03:40;18.85;;;14.15;;
45522;SDS011;31254;51.680;5.394;2023-10-31T12:06:08;17.30;;;13.93;;
45522;SDS011;31254;51.680;5.394;2023-10-31T12:13:35;20.27;;;13.50;;
45522;SDS011;31254;51.680;5.394;2023-10-31T12:16:03;17.45;;;13.50;;
45522;SDS011;31254;51.680;5.394;2023-10-31T12:18:33;19.60;;;14.15;;
45522;SDS011;31254;51.680;5.394;2023-10-31T12:21:01;20.77;;;14.57;;
45522;SDS011;31254;51.680;5.394;2023-10-31T12:23:29;18.25;;;13.57;;
45522;SDS011;31254;51.680;5.394;2023-10-31T12:25:56;19.65;;;13.82;;
45522;SDS011;31254;51.680;5.394;2023-10-31T12:28:24;19.35;;;13.57;;
45522;SDS011;31254;51.680;5.394;2023-10-31T12:30:54;18.40;;;13.63;;
45522;SDS011;31254;51.680;5.394;2023-10-31T12:33:22;17.95;;;13.68;;
45522;SDS011;31254;51.680;5.394;2023-10-31T12:35:58;17.60;;;12.98;;
45522;SDS011;31254;51.680;5.394;2023-10-31T12:38:26;17.05;;;12.98;;
45522;SDS011;31254;51.680;5.394;2023-10-31T12:40:54;15.90;;;13.38;;
45522;SDS011;31254;51.680;5.394;2023-10-31T12:43:23;18.75;;;12.90;;
45522;SDS011;31254;51.680;5.394;2023-10-31T12:45:51;17.08;;;12.77;;
45522;SDS011;31254;51.680;5.394;2023-10-31T12:48:23;15.10;;;12.63;;
45522;SDS011;31254;51.680;5.394;2023-10-31T12:51:05;15.85;;;12.48;;
45522;SDS011;31254;51.680;5.394;2023-10-31T12:53:33;15.65;;;11.90;;
45522;SDS011;31254;51.680;5.394;2023-10-31T12:56:01;17.17;;;12.55;;
45522;SDS011;31254;51.680;5.394;2023-10-31T12:58:28;14.23;;;12.13;;
45522;SDS011;31254;51.680;5.394;2023-10-31T13:00:55;14.75;;;11.77;;
45522;SDS011;31254;51.680;5.394;2023-10-31T13:03:22;16.15;;;11.23;;
45522;SDS011;31254;51.680;5.394;2023-10-31T13:05:49;12.98;;;10.98;;
45522;SDS011;31254;51.680;5.394;2023-10-31T13:08:17;14.68;;;10.80;;
45522;SDS011;31254;51.680;5.394;2023-10-31T13:10:43;13.00;;;10.45;;
45522;SDS011;31254;51.680;5.394;2023-10-31T13:13:10;11.85;;;9.88;;
45522;SDS011;31254;51.680;5.394;2023-10-31T13:15:39;12.13;;;9.07;;
45522;SDS011;31254;51.680;5.394;2023-10-31T13:18:06;12.63;;;10.70;;
45522;SDS011;31254;51.680;5.394;2023-10-31T13:20:33;11.90;;;10.15;;
45522;SDS011;31254;51.680;5.394;2023-10-31T13:23:00;11.98;;;8.35;;
45522;SDS011;31254;51.680;5.394;2023-10-31T13:25:29;13.82;;;8.10;;
45522;SDS011;31254;51.680;5.394;2023-10-31T13:27:57;11.48;;;8.10;;
45522;SDS011;31254;51.680;5.394;2023-10-31T13:30:24;14.77;;;8.30;;
45522;SDS011;31254;51.680;5.394;2023-10-31T13:32:51;10.70;;;8.57;;
45522;SDS011;31254;51.680;5.394;2023-10-31T13:35:19;10.73;;;8.45;;
45522;SDS011;31254;51.680;5.394;2023-10-31T13:37:46;9.45;;;7.40;;
45522;SDS011;31254;51.680;5.394;2023-10-31T13:40:13;12.05;;;8.10;;
45522;SDS011;31254;51.680;5.394;2023-10-31T13:42:40;11.93;;;6.65;;
45522;SDS011;31254;51.680;5.394;2023-10-31T13:45:07;11.05;;;7.18;;
45522;SDS011;31254;51.680;5.394;2023-10-31T13:47:33;10.02;;;7.43;;
45522;SDS011;31254;51.680;5.394;2023-10-31T13:50:01;9.55;;;7.15;;
45522;SDS011;31254;51.680;5.394;2023-10-31T13:52:28;10.27;;;8.00;;
45522;SDS011;31254;51.680;5.394;2023-10-31T13:54:55;9.65;;;7.45;;
45522;SDS011;31254;51.680;5.394;2023-10-31T13:57:21;10.13;;;7.38;;
45522;SDS011;31254;51.680;5.394;2023-10-31T13:59:49;12.90;;;6.63;;
45522;SDS011;31254;51.680;5.394;2023-10-31T14:02:16;9.75;;;7.32;;
45522;SDS011;31254;51.680;5.394;2023-10-31T14:04:44;9.57;;;6.95;;
45522;SDS011;31254;51.680;5.394;2023-10-31T14:07:12;9.95;;;6.28;;
45522;SDS011;31254;51.680;5.394;2023-10-31T14:09:46;10.20;;;6.68;;
45522;SDS011;31254;51.680;5.394;2023-10-31T14:12:14;10.77;;;6.25;;
45522;SDS011;31254;51.680;5.394;2023-10-31T14:14:40;8.95;;;5.90;;
45522;SDS011;31254;51.680;5.394;2023-10-31T14:17:07;8.85;;;6.20;;
45522;SDS011;31254;51.680;5.394;2023-10-31T14:19:34;8.23;;;6.05;;
45522;SDS011;31254;51.680;5.394;2023-10-31T14:22:00;6.80;;;5.22;;
45522;SDS011;31254;51.680;5.394;2023-10-31T14:24:27;7.15;;;6.05;;
45522;SDS011;31254;51.680;5.394;2023-10-31T14:26:53;7.95;;;5.65;;
45522;SDS011;31254;51.680;5.394;2023-10-31T14:29:20;7.45;;;5.82;;
45522;SDS011;31254;51.680;5.394;2023-10-31T14:31:47;7.60;;;5.88;;
45522;SDS011;31254;51.680;5.394;2023-10-31T14:34:13;7.90;;;5.22;;
45522;SDS011;31254;51.680;5.394;2023-10-31T14:36:40;7.82;;;5.13;;
45522;SDS011;31254;51.680;5.394;2023-10-31T14:39:07;7.38;;;5.15;;
45522;SDS011;31254;51.680;5.394;2023-10-31T14:41:35;6.97;;;4.97;;
45522;SDS011;31254;51.680;5.394;2023-10-31T14:44:01;6.95;;;4.65;;